Time;durP1;ratioP1;P1;durP2;ratioP2;P2;SDS_P1;SDS_P2;PMS_P1;PMS_P2;Temp;Humidity;BMP_temperature;BMP_pressure;BME280_temperature;BME280_humidity;BME280_pressure;Samples;Min_cycle;Max_cycle;Signal;HPM_P1;HPM_P2
2023/02/01 00:00:46;;;;;;;;;;;;;;;3.32;79.16;99513.37;107925;1257;124548;-82
2023/02/01 00:03:26;;;;;;;;;;;;;;;3.40;79.26;99522.15;107995;1259;77340;-82
2023/02/01 00:05:58;;;;;;;;;;;;;;;3.47;79.24;99525.85;107784;1257;124504;-82
2023/02/01 00:08:24;;;;;;;;;;;;;;;3.50;79.16;99519.38;107696;1256;71475;-82
2023/02/01 00:11:00;;;;;;;;;;;;;;;3.50;79.06;99519.90;107642;1262;125375;-81
2023/02/01 00:13:30;;;;;;;;;;;;;;;3.50;79.05;99513.98;107732;1257;61182;-82
2023/02/01 00:16:03;;;;;;;;;;;;;;;3.54;79.17;99508.05;107596;1256;75104;-81
2023/02/01 00:18:29;;;;;;;;;;;;;;;3.58;79.21;99511.33;107624;1257;124781;-81
2023/02/01 00:20:56;;;;;;;;;;;;;;;3.59;79.11;99519.84;107979;1259;61466;-81
2023/02/01 00:23:22;;;;;;;;;;;;;;;3.61;79.23;99524.58;107881;1259;124513;-82
2023/02/01 00:25:48;;;;;;;;;;;;;;;3.65;79.45;99527.50;107917;1254;61112;-82
2023/02/01 00:28:15;;;;;;;;;;;;;;;3.68;79.49;99529.68;107981;1256;59837;-81
2023/02/01 00:30:41;;;;;;;;;;;;;;;3.71;79.39;99533.42;107925;1259;124273;-81
2023/02/01 00:33:07;;;;;;;;;;;;;;;3.74;79.48;99528.15;108029;1257;59707;-81
2023/02/01 00:35:34;;;;;;;;;;;;;;;3.75;79.43;99531.99;108102;1256;124297;-81
2023/02/01 00:38:00;;;;;;;;;;;;;;;3.76;79.41;99534.45;108225;1256;59659;-81
2023/02/01 00:40:27;;;;;;;;;;;;;;;3.79;79.47;99547.04;108025;1256;59658;-81
2023/02/01 00:42:53;;;;;;;;;;;;;;;3.81;79.31;99551.95;107654;1254;124014;-81
2023/02/01 00:45:19;;;;;;;;;;;;;;;3.81;79.34;99547.63;107888;1255;60349;-81
2023/02/01 00:47:46;;;;;;;;;;;;;;;3.82;79.36;99547.83;107586;1257;123989;-81
2023/02/01 00:50:12;;;;;;;;;;;;;;;3.82;79.44;99548.69;107875;1256;59728;-81
2023/02/01 00:52:38;;;;;;;;;;;;;;;3.80;79.36;99547.77;107601;1261;61297;-81
2023/02/01 00:55:05;;;;;;;;;;;;;;;3.79;79.47;99545.15;107602;1256;124221;-81
2023/02/01 00:57:31;;;;;;;;;;;;;;;3.80;79.49;99543.77;107836;1257;61336;-81
2023/02/01 00:59:57;;;;;;;;;;;;;;;3.77;79.41;99539.86;107927;1257;124267;-81
2023/02/01 01:02:24;;;;;;;;;;;;;;;3.76;79.53;99537.56;107811;1256;59621;-81
2023/02/01 01:04:51;;;;;;;;;;;;;;;3.76;79.58;99530.80;107837;1253;127162;-81
2023/02/01 01:07:17;;;;;;;;;;;;;;;3.76;79.56;99519.89;107954;1257;61310;-81
2023/02/01 01:09:44;;;;;;;;;;;;;;;3.74;79.37;99517.39;107804;1257;61245;-81
2023/02/01 01:12:10;;;;;;;;;;;;;;;3.68;79.30;99518.95;108105;1259;124840;-81
2023/02/01 01:14:36;;;;;;;;;;;;;;;3.64;79.22;99518.61;108606;1259;59480;-81
2023/02/01 01:17:03;;;;;;;;;;;;;;;3.60;79.36;99518.67;108793;1256;125244;-81
2023/02/01 01:19:29;;;;;;;;;;;;;;;3.60;79.48;99515.52;108890;1259;59603;-81
2023/02/01 01:21:55;;;;;;;;;;;;;;;3.60;79.46;99517.45;108950;1254;59965;-81
2023/02/01 01:24:21;;;;;;;;;;;;;;;3.60;79.60;99516.41;108839;1256;124196;-81
2023/02/01 01:26:48;;;;;;;;;;;;;;;3.60;79.66;99519.68;108876;1259;59160;-81
2023/02/01 01:29:14;;;;;;;;;;;;;;;3.61;79.79;99516.26;108353;1257;125041;-81
2023/02/01 01:31:40;;;;;;;;;;;;;;;3.63;79.79;99512.17;108084;1259;61333;-81
2023/02/01 01:34:08;;;;;;;;;;;;;;;3.65;79.73;99511.55;108270;1256;59717;-81
2023/02/01 01:36:34;;;;;;;;;;;;;;;3.67;79.67;99513.34;107886;1254;124499;-81
2023/02/01 01:39:00;;;;;;;;;;;;;;;3.67;79.73;99514.91;107691;1257;59516;-81
2023/02/01 01:41:30;;;;;;;;;;;;;;;3.66;79.56;99514.86;107602;1259;125151;-82
2023/02/01 01:44:03;;;;;;;;;;;;;;;3.66;79.54;99516.61;108552;1257;73304;-82
2023/02/01 01:46:37;;;;;;;;;;;;;;;3.68;79.68;99515.11;108341;1259;61359;-81
2023/02/01 01:49:09;;;;;;;;;;;;;;;3.70;79.82;99524.73;107553;1254;124335;-82
2023/02/01 01:51:37;;;;;;;;;;;;;;;3.73;79.81;99526.19;107781;1256;74452;-82
2023/02/01 01:54:03;;;;;;;;;;;;;;;3.67;79.66;99514.55;108136;1256;125115;-83
2023/02/01 01:56:29;;;;;;;;;;;;;;;3.58;79.48;99515.13;109028;1257;59226;-82
2023/02/01 01:58:56;;;;;;;;;;;;;;;3.49;79.54;99520.89;108744;1257;125028;-82
2023/02/01 02:01:22;;;;;;;;;;;;;;;3.41;79.53;99519.42;108815;1257;59390;-83
2023/02/01 02:03:49;;;;;;;;;;;;;;;3.36;79.61;99520.45;108858;1257;59605;-82
2023/02/01 02:06:27;;;;;;;;;;;;;;;3.33;79.46;99516.71;108798;1257;124538;-82
2023/02/01 02:08:53;;;;;;;;;;;;;;;3.33;79.62;99516.36;108839;1257;71382;-82
2023/02/01 02:11:20;;;;;;;;;;;;;;;3.34;79.77;99518.49;108664;1260;124722;-82
2023/02/01 02:13:48;;;;;;;;;;;;;;;3.33;79.71;99513.95;108998;1259;59324;-82
2023/02/01 02:16:33;;;;;;;;;;;;;;;3.30;79.87;99513.48;108800;1258;76371;-82
2023/02/01 02:19:15;;;;;;;;;;;;;;;3.23;79.75;99502.69;108811;1259;124378;-81
2023/02/01 02:22:00;;;;;;;;;;;;;;;3.16;79.78;99508.32;108844;1254;73198;-82
2023/02/01 02:24:42;;;;;;;;;;;;;;;3.06;79.81;99510.42;108928;1257;125074;-82
2023/02/01 02:27:28;;;;;;;;;;;;;;;3.00;79.92;99514.69;108834;1257;59440;-82
2023/02/01 02:29:58;;;;;;;;;;;;;;;2.93;79.96;99518.29;108456;1259;125064;-82
2023/02/01 02:32:59;;;;;;;;;;;;;;;2.96;80.24;99521.14;107989;1257;65832;-82
2023/02/01 02:35:27;;;;;;;;;;;;;;;3.02;80.65;99527.45;107282;1265;124992;-82
2023/02/01 02:37:55;;;;;;;;;;;;;;;3.08;80.65;99529.20;107632;1257;61253;-82
2023/02/01 02:40:24;;;;;;;;;;;;;;;3.15;80.72;99539.33;107841;1255;61179;-82
2023/02/01 02:48:55;;;;;;;;;;;;;;;3.29;80.69;99547.77;107611;1262;124373;-81
2023/02/01 03:05:18;;;;;;;;;;;;;;;3.37;80.43;99591.40;107393;1257;124895;-80
2023/02/01 03:07:45;;;;;;;;;;;;;;;3.28;80.26;99581.73;107448;1257;61371;-80
2023/02/01 03:10:31;;;;;;;;;;;;;;;3.20;80.28;99565.67;107646;1254;61279;-81
2023/02/01 03:13:02;;;;;;;;;;;;;;;3.13;80.18;99563.34;107551;1255;124134;-81
2023/02/01 03:15:42;;;;;;;;;;;;;;;3.09;80.22;99558.53;107836;1257;72585;-81
2023/02/01 03:18:38;;;;;;;;;;;;;;;3.01;80.22;99542.98;107985;1255;124352;-80
2023/02/01 03:21:06;;;;;;;;;;;;;;;2.86;79.88;99540.38;107877;1257;59807;-80
2023/02/01 03:23:34;;;;;;;;;;;;;;;2.69;79.86;99539.08;107661;1260;124838;-81
2023/02/01 03:26:00;;;;;;;;;;;;;;;2.56;79.99;99545.35;107932;1254;65942;-81
2023/02/01 03:28:27;;;;;;;;;;;;;;;2.44;80.01;99544.90;107602;1261;59524;-81
2023/02/01 03:30:53;;;;;;;;;;;;;;;2.45;80.72;99544.41;107452;1262;124674;-81
2023/02/01 03:33:23;;;;;;;;;;;;;;;2.58;81.25;99544.02;107711;1260;59880;-82
2023/02/01 03:36:01;;;;;;;;;;;;;;;2.71;81.44;99546.95;107863;1256;124980;-81
2023/02/01 03:38:37;;;;;;;;;;;;;;;2.81;81.56;99542.64;108432;1259;67925;-81
2023/02/01 03:41:15;;;;;;;;;;;;;;;2.84;81.54;99542.92;108749;1256;125202;-81
2023/02/01 03:43:51;;;;;;;;;;;;;;;2.88;81.67;99557.78;108677;1259;61228;-81
2023/02/01 03:46:32;;;;;;;;;;;;;;;2.99;81.99;99561.13;107828;1263;59528;-81
2023/02/01 03:49:03;;;;;;;;;;;;;;;3.10;82.04;99550.95;107984;1259;125531;-81
2023/02/01 03:51:29;;;;;;;;;;;;;;;3.18;82.06;99546.86;107679;1254;65774;-82
2023/02/01 03:53:55;;;;;;;;;;;;;;;3.25;81.89;99555.63;107566;1259;124744;-82
2023/02/01 03:56:22;;;;;;;;;;;;;;;3.31;81.96;99560.33;107816;1258;61247;-81
2023/02/01 03:58:58;;;;;;;;;;;;;;;3.36;81.86;99556.02;107642;1262;124967;-81
2023/02/01 04:01:26;;;;;;;;;;;;;;;3.41;81.97;99551.69;107903;1260;74622;-81
2023/02/01 04:03:52;;;;;;;;;;;;;;;3.43;81.55;99553.30;108210;1258;65532;-81
2023/02/01 04:06:18;;;;;;;;;;;;;;;3.43;81.45;99554.15;107930;1257;124743;-82
2023/02/01 04:08:44;;;;;;;;;;;;;;;3.42;81.36;99549.45;107725;1254;59727;-81
2023/02/01 04:11:11;;;;;;;;;;;;;;;3.36;81.05;99538.52;108853;1254;127136;-82
2023/02/01 04:13:37;;;;;;;;;;;;;;;3.31;81.07;99529.31;108921;1257;59507;-82
2023/02/01 04:16:03;;;;;;;;;;;;;;;3.26;81.07;99532.45;109042;1254;59493;-82
2023/02/01 04:18:30;;;;;;;;;;;;;;;3.27;81.28;99533.67;108760;1254;124559;-81
2023/02/01 04:20:56;;;;;;;;;;;;;;;3.30;81.41;99533.80;108976;1257;59276;-81
2023/02/01 04:23:22;;;;;;;;;;;;;;;3.28;81.16;99532.34;108906;1257;123848;-81
2023/02/01 04:25:48;;;;;;;;;;;;;;;3.24;81.25;99533.94;108811;1254;59453;-81
2023/02/01 04:28:15;;;;;;;;;;;;;;;3.20;81.17;99535.88;109005;1260;59459;-81
2023/02/01 04:30:41;;;;;;;;;;;;;;;3.16;81.14;99532.24;108772;1260;124987;-81
2023/02/01 04:33:07;;;;;;;;;;;;;;;3.14;81.26;99537.21;108910;1260;59494;-82
2023/02/01 04:35:34;;;;;;;;;;;;;;;3.11;81.34;99540.05;108784;1254;125013;-82
2023/02/01 04:38:00;;;;;;;;;;;;;;;3.07;81.35;99543.73;108987;1254;59190;-81
2023/02/01 04:40:26;;;;;;;;;;;;;;;3.04;81.31;99546.05;108900;1254;59234;-81
2023/02/01 04:42:53;;;;;;;;;;;;;;;3.01;81.29;99549.59;108950;1254;124701;-81
2023/02/01 04:45:19;;;;;;;;;;;;;;;2.98;81.23;99546.36;109059;1254;59419;-82
2023/02/01 04:47:45;;;;;;;;;;;;;;;2.93;81.25;99542.20;108785;1255;124328;-81
2023/02/01 04:50:12;;;;;;;;;;;;;;;2.91;81.28;99551.65;108823;1258;61636;-82
2023/02/01 04:52:38;;;;;;;;;;;;;;;2.90;81.32;99550.75;108780;1257;59210;-82
2023/02/01 04:55:04;;;;;;;;;;;;;;;2.91;81.27;99550.61;108829;1255;125391;-82
2023/02/01 04:57:31;;;;;;;;;;;;;;;2.90;81.34;99552.50;108851;1257;60840;-82
2023/02/01 04:59:57;;;;;;;;;;;;;;;2.92;81.12;99548.56;108822;1259;125122;-83
2023/02/01 05:02:23;;;;;;;;;;;;;;;2.92;81.18;99548.23;108907;1256;59693;-81
2023/02/01 05:04:50;;;;;;;;;;;;;;;2.93;81.13;99549.45;108895;1254;124881;-80
2023/02/01 05:07:16;;;;;;;;;;;;;;;2.93;81.15;99549.47;108796;1254;59478;-82
2023/02/01 05:09:42;;;;;;;;;;;;;;;2.93;81.08;99547.58;108975;1260;59354;-82
2023/02/01 05:14:54;;;;;;;;;;;;;;;3.01;81.46;99561.03;109031;1254;67555;-81
2023/02/01 05:17:20;;;;;;;;;;;;;;;3.10;81.56;99559.61;108923;1258;124906;-81
2023/02/01 05:19:47;;;;;;;;;;;;;;;3.18;81.68;99555.03;108153;1260;61310;-81
2023/02/01 05:22:13;;;;;;;;;;;;;;;3.25;81.67;99550.95;107771;1260;62266;-80
2023/02/01 05:24:39;;;;;;;;;;;;;;;3.31;81.72;99549.09;107585;1256;124745;-80
2023/02/01 05:27:05;;;;;;;;;;;;;;;3.36;81.63;99552.20;107723;1257;61202;-81
2023/02/01 05:29:32;;;;;;;;;;;;;;;3.42;81.62;99552.92;107600;1254;124873;-81
2023/02/01 05:31:58;;;;;;;;;;;;;;;3.47;81.59;99547.20;107705;1257;61235;-80
2023/02/01 05:34:24;;;;;;;;;;;;;;;3.51;81.56;99551.49;107689;1257;61568;-80
2023/02/01 05:36:50;;;;;;;;;;;;;;;3.54;81.47;99554.18;107582;1257;124880;-80
2023/02/01 05:39:17;;;;;;;;;;;;;;;3.57;81.48;99546.67;108821;1257;59582;-81
2023/02/01 05:41:44;;;;;;;;;;;;;;;3.62;81.47;99544.05;107625;1260;124261;-82
2023/02/01 05:44:11;;;;;;;;;;;;;;;3.64;81.54;99543.77;107658;1257;61624;-80
2023/02/01 05:46:37;;;;;;;;;;;;;;;3.65;81.46;99536.86;107711;1260;59979;-80
2023/02/01 05:49:03;;;;;;;;;;;;;;;3.68;81.52;99534.71;108253;1257;124605;-80
2023/02/01 05:51:30;;;;;;;;;;;;;;;3.70;81.35;99536.86;108883;1254;59518;-79
2023/02/01 05:53:56;;;;;;;;;;;;;;;3.73;81.29;99535.73;108782;1257;124436;-80
2023/02/01 05:56:22;;;;;;;;;;;;;;;3.75;81.33;99538.76;108960;1254;59333;-82
2023/02/01 05:58:48;;;;;;;;;;;;;;;3.78;81.26;99540.41;108947;1254;125328;-79
2023/02/01 06:01:15;;;;;;;;;;;;;;;3.81;81.17;99540.16;108851;1258;59615;-81
2023/02/01 06:03:41;;;;;;;;;;;;;;;3.82;81.11;99549.77;109034;1254;59461;-80
2023/02/01 06:06:07;;;;;;;;;;;;;;;3.85;81.20;99553.13;108893;1254;124684;-80
2023/02/01 06:08:33;;;;;;;;;;;;;;;3.85;81.01;99559.73;109068;1256;59354;-79
2023/02/01 06:11:00;;;;;;;;;;;;;;;3.85;80.97;99551.94;108940;1254;124951;-80
2023/02/01 06:13:29;;;;;;;;;;;;;;;3.78;80.72;99558.80;108872;1254;59097;-82
2023/02/01 06:15:56;;;;;;;;;;;;;;;3.63;80.44;99555.90;108255;1257;59773;-85
2023/02/01 06:18:23;;;;;;;;;;;;;;;3.53;80.55;99562.48;107664;1260;124111;-81
2023/02/01 06:20:53;;;;;;;;;;;;;;;3.48;80.60;99566.46;107532;1255;59793;-82
2023/02/01 06:23:23;;;;;;;;;;;;;;;3.42;80.65;99565.23;107493;1263;124477;-81
2023/02/01 06:25:51;;;;;;;;;;;;;;;3.37;80.66;99568.37;107663;1254;74754;-82
2023/02/01 06:28:17;;;;;;;;;;;;;;;3.33;80.66;99564.73;107789;1254;64885;-81
2023/02/01 06:30:45;;;;;;;;;;;;;;;3.29;80.68;99563.75;107825;1254;124253;-81
2023/02/01 06:33:19;;;;;;;;;;;;;;;3.24;80.61;99565.82;108122;1252;63234;-81
2023/02/01 06:35:46;;;;;;;;;;;;;;;3.17;80.62;99564.34;107553;1254;124288;-81
2023/02/01 06:38:13;;;;;;;;;;;;;;;3.08;80.68;99566.14;108542;1257;73470;-81
2023/02/01 06:40:40;;;;;;;;;;;;;;;3.00;80.56;99561.52;107571;1255;65944;-80
2023/02/01 06:43:07;;;;;;;;;;;;;;;2.93;80.83;99559.34;107593;1254;72587;-81
2023/02/01 06:45:33;;;;;;;;;;;;;;;2.88;80.81;99561.08;108108;1254;59548;-81
2023/02/01 06:48:02;;;;;;;;;;;;;;;2.85;81.03;99565.84;108141;1260;124801;-81
2023/02/01 06:50:28;;;;;;;;;;;;;;;2.89;81.37;99563.53;107749;1258;73410;-81
2023/02/01 06:52:55;;;;;;;;;;;;;;;2.94;81.65;99560.05;107554;1254;124473;-82
2023/02/01 06:55:21;;;;;;;;;;;;;;;3.03;81.85;99566.28;107735;1254;59714;-81
2023/02/01 06:57:47;;;;;;;;;;;;;;;3.13;81.85;99571.83;107785;1254;59643;-82
2023/02/01 07:00:14;;;;;;;;;;;;;;;3.23;81.88;99572.20;108900;1254;124947;-82
2023/02/01 07:02:40;;;;;;;;;;;;;;;3.32;81.97;99576.51;107721;1255;61323;-82
2023/02/01 07:05:07;;;;;;;;;;;;;;;3.39;81.98;99573.27;107669;1254;124628;-80
2023/02/01 07:07:33;;;;;;;;;;;;;;;3.44;81.98;99573.80;107893;1254;61461;-81
2023/02/01 07:09:59;;;;;;;;;;;;;;;3.46;81.90;99572.50;107832;1254;59676;-81
2023/02/01 07:12:26;;;;;;;;;;;;;;;3.48;81.80;99570.48;108464;1254;125028;-81
2023/02/01 07:14:52;;;;;;;;;;;;;;;3.50;81.84;99571.06;108145;1254;62274;-81
2023/02/01 07:17:18;;;;;;;;;;;;;;;3.45;81.70;99569.14;107613;1254;125200;-82
2023/02/01 07:19:44;;;;;;;;;;;;;;;3.40;81.68;99565.17;107627;1254;59732;-82
2023/02/01 07:22:11;;;;;;;;;;;;;;;3.36;81.58;99569.16;107664;1259;59601;-81
2023/02/01 07:24:37;;;;;;;;;;;;;;;3.33;81.54;99568.05;107547;1257;125259;-81
2023/02/01 07:27:03;;;;;;;;;;;;;;;3.29;81.45;99570.67;108090;1257;59834;-81
2023/02/01 07:29:30;;;;;;;;;;;;;;;3.24;81.35;99567.02;107935;1254;124483;-81
2023/02/01 07:31:56;;;;;;;;;;;;;;;3.21;81.55;99566.41;107815;1257;61230;-81
2023/02/01 07:34:22;;;;;;;;;;;;;;;3.21;81.69;99565.20;107633;1258;61323;-79
2023/02/01 07:36:48;;;;;;;;;;;;;;;3.25;81.78;99568.13;107635;1254;124650;-80
2023/02/01 07:39:15;;;;;;;;;;;;;;;3.29;81.88;99565.64;107974;1254;59362;-80
2023/02/01 07:41:41;;;;;;;;;;;;;;;3.31;81.77;99562.43;107581;1256;125230;-80
2023/02/01 07:44:07;;;;;;;;;;;;;;;3.32;81.80;99561.09;107669;1254;61367;-80
2023/02/01 07:46:34;;;;;;;;;;;;;;;3.34;81.67;99564.42;108559;1256;61360;-80
2023/02/01 07:49:00;;;;;;;;;;;;;;;3.40;81.84;99563.61;108741;1256;124218;-80
2023/02/01 07:51:26;;;;;;;;;;;;;;;3.45;81.82;99564.98;108959;1254;59767;-81
2023/02/01 07:53:52;;;;;;;;;;;;;;;3.53;81.78;99566.45;108813;1257;124282;-80
2023/02/01 07:56:19;;;;;;;;;;;;;;;3.63;81.87;99563.00;108543;1254;59349;-80
2023/02/01 07:58:49;;;;;;;;;;;;;;;3.73;81.77;99563.50;108705;1254;124794;-80
2023/02/01 08:01:25;;;;;;;;;;;;;;;3.85;81.82;99561.83;108911;1254;73150;-81
2023/02/01 08:03:51;;;;;;;;;;;;;;;3.93;81.69;99555.84;108752;1255;65703;-81
2023/02/01 08:06:19;;;;;;;;;;;;;;;3.98;81.38;99557.89;108817;1254;125122;-79
2023/02/01 08:08:46;;;;;;;;;;;;;;;4.03;81.27;99564.98;109020;1254;59301;-81
2023/02/01 08:11:13;;;;;;;;;;;;;;;4.05;81.06;99558.14;108752;1254;125078;-81
2023/02/01 08:13:39;;;;;;;;;;;;;;;4.10;81.07;99564.54;108808;1254;74689;-81
2023/02/01 08:16:06;;;;;;;;;;;;;;;4.17;80.95;99557.45;108462;1254;59544;-80
2023/02/01 08:18:33;;;;;;;;;;;;;;;4.21;81.00;99559.84;108043;1255;124470;-80
2023/02/01 08:21:06;;;;;;;;;;;;;;;4.23;80.73;99557.98;108010;1256;61228;-80
2023/02/01 08:23:33;;;;;;;;;;;;;;;4.26;80.59;99557.38;107488;1256;124492;-80
2023/02/01 08:26:06;;;;;;;;;;;;;;;4.29;80.50;99549.84;107728;1254;74997;-79
2023/02/01 08:28:32;;;;;;;;;;;;;;;4.34;80.51;99548.93;107857;1254;64862;-80
2023/02/01 08:30:59;;;;;;;;;;;;;;;4.36;80.24;99541.55;107868;1257;125742;-81
2023/02/01 08:33:25;;;;;;;;;;;;;;;4.38;80.10;99545.60;107779;1257;61260;-80
2023/02/01 08:35:51;;;;;;;;;;;;;;;4.38;79.87;99539.19;107484;1254;124812;-80
2023/02/01 08:38:18;;;;;;;;;;;;;;;4.38;79.84;99540.20;107574;1254;61282;-81
2023/02/01 08:40:45;;;;;;;;;;;;;;;4.39;79.66;99545.46;107501;1254;124553;-81
2023/02/01 08:43:11;;;;;;;;;;;;;;;4.43;79.86;99542.98;107704;1256;70276;-81
2023/02/01 08:45:38;;;;;;;;;;;;;;;4.47;79.83;99539.61;108362;1256;61558;-81
2023/02/01 08:48:04;;;;;;;;;;;;;;;4.52;79.82;99538.02;108786;1257;125576;-81
2023/02/01 08:50:30;;;;;;;;;;;;;;;4.58;79.74;99529.33;108874;1261;60112;-80
2023/02/01 08:52:57;;;;;;;;;;;;;;;4.62;79.67;99530.15;108979;1254;124884;-80
2023/02/01 08:55:23;;;;;;;;;;;;;;;4.66;79.69;99526.11;109098;1254;59716;-81
2023/02/01 08:57:49;;;;;;;;;;;;;;;4.69;79.46;99524.63;107899;1254;61390;-81
2023/02/01 09:00:16;;;;;;;;;;;;;;;4.70;79.40;99521.69;108020;1257;124534;-81
2023/02/01 09:02:42;;;;;;;;;;;;;;;4.73;79.34;99520.73;107958;1254;61700;-81
2023/02/01 09:05:10;;;;;;;;;;;;;;;4.75;79.23;99528.96;107877;1254;124481;-80
2023/02/01 09:07:36;;;;;;;;;;;;;;;4.78;79.24;99525.05;107818;1254;71285;-80
2023/02/01 09:10:03;;;;;;;;;;;;;;;4.82;79.21;99524.30;107866;1254;61122;-81
2023/02/01 09:12:30;;;;;;;;;;;;;;;4.88;79.13;99524.45;107850;1256;124701;-81
2023/02/01 09:14:56;;;;;;;;;;;;;;;4.91;78.96;99522.62;107831;1257;75054;-80
2023/02/01 09:17:23;;;;;;;;;;;;;;;4.93;78.70;99523.72;107780;1254;124612;-81
2023/02/01 09:19:49;;;;;;;;;;;;;;;4.94;78.66;99516.11;107856;1254;59915;-80
2023/02/01 09:22:16;;;;;;;;;;;;;;;4.98;78.58;99526.98;107809;1256;60440;-81
2023/02/01 09:24:44;;;;;;;;;;;;;;;5.00;78.46;99522.02;107913;1257;124243;-81
2023/02/01 09:27:10;;;;;;;;;;;;;;;5.03;78.38;99521.23;108103;1254;59252;-82
2023/02/01 09:29:37;;;;;;;;;;;;;;;5.05;78.13;99526.52;107814;1256;123932;-81
2023/02/01 09:32:03;;;;;;;;;;;;;;;5.09;77.99;99529.73;107856;1257;61269;-81
2023/02/01 09:34:29;;;;;;;;;;;;;;;5.13;78.02;99536.61;107959;1256;60312;-81
2023/02/01 09:36:56;;;;;;;;;;;;;;;5.15;77.79;99537.02;108162;1254;124601;-81
2023/02/01 09:39:22;;;;;;;;;;;;;;;5.17;77.84;99535.52;107991;1254;60385;-81
2023/02/01 09:41:52;;;;;;;;;;;;;;;5.20;77.70;99536.29;108184;1257;124825;-82
2023/02/01 09:44:25;;;;;;;;;;;;;;;5.22;77.51;99542.59;107705;1257;70866;-81
2023/02/01 09:46:58;;;;;;;;;;;;;;;5.27;77.60;99553.02;108839;1254;124420;-82
2023/02/01 09:49:28;;;;;;;;;;;;;;;5.43;77.68;99552.22;107663;1254;227539;-82
2023/02/01 09:51:57;;;;;;;;;;;;;;;5.48;77.49;99555.30;107745;1257;75941;-82
2023/02/01 09:54:24;;;;;;;;;;;;;;;5.52;77.29;99558.34;107972;1254;124744;-82
2023/02/01 09:57:09;;;;;;;;;;;;;;;5.52;77.14;99566.54;108141;1255;71349;-82
2023/02/01 09:59:43;;;;;;;;;;;;;;;5.55;76.95;99568.70;108081;1256;123918;-81
2023/02/01 10:02:17;;;;;;;;;;;;;;;5.57;76.74;99567.38;107973;1254;61198;-81
2023/02/01 10:04:43;;;;;;;;;;;;;;;5.59;76.56;99570.20;107575;1259;125067;-81
2023/02/01 10:07:10;;;;;;;;;;;;;;;5.63;76.74;99572.38;107531;1254;60223;-82
2023/02/01 10:09:44;;;;;;;;;;;;;;;5.79;76.92;99572.45;107801;1257;60235;-82
2023/02/01 10:12:29;;;;;;;;;;;;;;;5.93;76.63;99576.10;107456;1257;124561;-81
2023/02/01 10:15:15;;;;;;;;;;;;;;;6.04;76.38;99578.66;108922;1254;60463;-82
2023/02/01 10:17:51;;;;;;;;;;;;;;;6.13;76.72;99581.33;108632;1254;124251;-81
2023/02/01 10:20:22;;;;;;;;;;;;;;;6.16;76.11;99595.17;107631;1254;67542;-80
2023/02/01 10:22:52;;;;;;;;;;;;;;;6.14;76.01;99598.25;107760;1259;123886;-81
2023/02/01 10:25:30;;;;;;;;;;;;;;;6.10;76.31;99599.89;108015;1256;62913;-81
2023/02/01 10:27:56;;;;;;;;;;;;;;;6.09;76.44;99608.58;107972;1254;60166;-81
2023/02/01 10:30:24;;;;;;;;;;;;;;;6.08;76.45;99608.56;107379;1260;123640;-80
2023/02/01 10:32:57;;;;;;;;;;;;;;;6.09;76.54;99605.45;107876;1256;65571;-81
2023/02/01 10:35:33;;;;;;;;;;;;;;;6.11;76.55;99607.58;108776;1256;124912;-81
2023/02/01 10:38:01;;;;;;;;;;;;;;;6.13;76.64;99607.45;108861;1254;59934;-81
2023/02/01 10:40:27;;;;;;;;;;;;;;;6.21;76.72;99605.22;108837;1254;61269;-81
2023/02/01 10:42:55;;;;;;;;;;;;;;;6.33;76.82;99606.72;108753;1254;125984;-81
2023/02/01 10:45:22;;;;;;;;;;;;;;;6.56;76.94;99605.14;108869;1256;66501;-81
2023/02/01 10:47:49;;;;;;;;;;;;;;;6.84;76.94;99605.41;108844;1254;124895;-81
2023/02/01 10:50:36;;;;;;;;;;;;;;;7.09;76.68;99607.68;108879;1254;59252;-81
2023/02/01 10:53:11;;;;;;;;;;;;;;;7.18;75.96;99605.60;108822;1256;124272;-82
2023/02/01 10:55:39;;;;;;;;;;;;;;;7.09;75.32;99609.77;108076;1255;74570;-80
2023/02/01 10:58:14;;;;;;;;;;;;;;;6.97;74.87;99615.64;107791;1256;67075;-81
2023/02/01 11:00:44;;;;;;;;;;;;;;;6.93;74.98;99623.21;107656;1254;123825;-81
2023/02/01 11:03:20;;;;;;;;;;;;;;;6.88;74.68;99621.88;107593;1256;61193;-81
2023/02/01 11:05:47;;;;;;;;;;;;;;;6.94;74.83;99618.00;107490;1254;124319;-81
2023/02/01 11:08:16;;;;;;;;;;;;;;;7.03;74.88;99619.08;107665;1254;59836;-82
2023/02/01 11:10:42;;;;;;;;;;;;;;;7.07;74.63;99620.91;107822;1254;124385;-82
2023/02/01 11:13:17;;;;;;;;;;;;;;;7.08;74.60;99617.79;108014;1256;60320;-81
2023/02/01 11:15:47;;;;;;;;;;;;;;;7.08;74.06;99622.13;107800;1255;59300;-83
2023/02/01 11:18:18;;;;;;;;;;;;;;;6.97;73.83;99624.00;107789;1257;124986;-83
2023/02/01 11:20:46;;;;;;;;;;;;;;;6.95;74.06;99626.41;107818;1254;74554;-82
2023/02/01 11:23:14;;;;;;;;;;;;;;;7.05;74.24;99627.48;107400;1254;125440;-82
2023/02/01 11:25:40;;;;;;;;;;;;;;;7.14;74.47;99624.20;109028;1254;71460;-80
2023/02/01 11:28:07;;;;;;;;;;;;;;;7.26;74.40;99624.77;108740;1254;59710;-81
2023/02/01 11:30:40;;;;;;;;;;;;;;;7.23;73.84;99620.19;108729;1254;124712;-81
2023/02/01 11:33:07;;;;;;;;;;;;;;;7.17;73.84;99622.14;108806;1255;75274;-81
2023/02/01 11:35:37;;;;;;;;;;;;;;;7.14;73.78;99622.78;108890;1259;123938;-81
2023/02/01 11:38:11;;;;;;;;;;;;;;;7.12;73.92;99624.51;108727;1257;73261;-81
2023/02/01 11:40:38;;;;;;;;;;;;;;;7.10;73.95;99619.92;107943;1254;61133;-81
2023/02/01 11:43:12;;;;;;;;;;;;;;;7.09;74.04;99614.48;107529;1260;124340;-81
2023/02/01 11:45:39;;;;;;;;;;;;;;;7.05;73.90;99623.48;107478;1260;73391;-81
2023/02/01 11:48:09;;;;;;;;;;;;;;;6.97;73.87;99617.55;107658;1254;124337;-81
2023/02/01 11:50:39;;;;;;;;;;;;;;;6.89;73.96;99613.88;108062;1254;73560;-81
2023/02/01 11:53:09;;;;;;;;;;;;;;;6.89;74.11;99600.11;107642;1254;123682;-81
2023/02/01 11:55:44;;;;;;;;;;;;;;;7.02;74.55;99601.45;107809;1254;61122;-81
2023/02/01 11:58:17;;;;;;;;;;;;;;;7.46;75.18;99599.34;107730;1256;72661;-80
2023/02/01 12:01:05;;;;;;;;;;;;;;;7.88;74.88;99598.17;107790;1254;124105;-81
2023/02/01 12:03:47;;;;;;;;;;;;;;;8.26;74.57;99590.07;107966;1255;72751;-81
2023/02/01 12:06:23;;;;;;;;;;;;;;;8.52;73.82;99586.63;107976;1257;125322;-81
2023/02/01 12:08:53;;;;;;;;;;;;;;;8.59;73.19;99581.31;108063;1255;60396;-80
2023/02/01 12:11:38;;;;;;;;;;;;;;;8.51;72.66;99583.30;107804;1257;125678;-80
2023/02/01 12:14:06;;;;;;;;;;;;;;;8.39;72.24;99582.75;108918;1256;65801;-80
2023/02/01 12:16:46;;;;;;;;;;;;;;;8.18;71.92;99588.71;108906;1254;72596;-82
2023/02/01 12:19:13;;;;;;;;;;;;;;;7.99;71.99;99589.27;108997;1256;59220;-80
2023/02/01 12:21:42;;;;;;;;;;;;;;;7.79;71.80;99588.58;109014;1256;59978;-81
2023/02/01 12:24:30;;;;;;;;;;;;;;;7.54;71.78;99593.38;108988;1256;123861;-81
2023/02/01 12:27:16;;;;;;;;;;;;;;;7.31;71.94;99598.70;107478;1259;65598;-80
2023/02/01 12:29:46;;;;;;;;;;;;;;;7.08;72.17;99610.46;107559;1256;123854;-80
2023/02/01 12:32:20;;;;;;;;;;;;;;;6.91;72.58;99608.36;107742;1254;61225;-80
2023/02/01 12:34:59;;;;;;;;;;;;;;;6.76;72.77;99601.74;107774;1255;124615;-80
2023/02/01 12:37:40;;;;;;;;;;;;;;;6.63;73.08;99603.73;107818;1254;75811;-80
2023/02/01 12:40:23;;;;;;;;;;;;;;;6.56;73.31;99607.06;108939;1254;65919;-80
2023/02/01 12:42:56;;;;;;;;;;;;;;;6.45;73.44;99614.83;108697;1255;124203;-80
2023/02/01 12:45:46;;;;;;;;;;;;;;;6.29;73.53;99616.88;107676;1259;61333;-80
2023/02/01 12:48:22;;;;;;;;;;;;;;;6.30;74.12;99621.62;107827;1256;125174;-81
2023/02/01 12:51:01;;;;;;;;;;;;;;;6.43;74.41;99618.09;108849;1258;75153;-81
2023/02/01 12:53:38;;;;;;;;;;;;;;;6.58;74.54;99631.34;108784;1254;125328;-81
2023/02/01 12:56:07;;;;;;;;;;;;;;;6.36;73.31;99639.18;108969;1254;71379;-80
2023/02/01 12:58:54;;;;;;;;;;;;;;;5.85;73.24;99644.50;108951;1254;59175;-81
2023/02/01 13:01:22;;;;;;;;;;;;;;;5.28;74.07;99640.16;109012;1255;59877;-81
2023/02/01 13:03:49;;;;;;;;;;;;;;;4.96;74.43;99635.60;108902;1256;75669;-81
2023/02/01 13:06:17;;;;;;;;;;;;;;;4.77;74.82;99629.83;108818;1256;124045;-81
2023/02/01 13:08:50;;;;;;;;;;;;;;;4.64;75.26;99621.96;108801;1254;72658;-81
2023/02/01 13:11:18;;;;;;;;;;;;;;;4.65;75.85;99616.93;108915;1254;124908;-81
2023/02/01 13:13:54;;;;;;;;;;;;;;;4.65;76.09;99608.60;108875;1254;59851;-80
2023/02/01 13:16:37;;;;;;;;;;;;;;;4.71;76.43;99611.05;108824;1256;75075;-80